createdAt,value
2022-09-10T00:01:32.277Z,15.10
2022-09-10T00:04:02.962Z,15.00
2022-09-10T00:06:35.227Z,15.00
2022-09-10T00:09:03.388Z,14.90
2022-09-10T00:11:31.954Z,14.90
2022-09-10T00:14:00.890Z,14.90
2022-09-10T00:16:29.846Z,14.90
2022-09-10T00:18:58.376Z,14.90
2022-09-10T00:21:29.941Z,14.80
2022-09-10T00:23:58.277Z,14.80
2022-09-10T00:26:28.254Z,14.80
2022-09-10T00:28:59.563Z,14.80
2022-09-10T00:31:29.699Z,14.80
2022-09-10T00:33:59.801Z,14.80
2022-09-10T00:36:32.839Z,14.80
2022-09-10T00:39:03.498Z,14.80
2022-09-10T00:41:32.092Z,14.90
2022-09-10T00:44:03.101Z,14.90
2022-09-10T00:46:37.958Z,15.00
2022-09-10T00:49:14.554Z,15.10
2022-09-10T00:51:47.308Z,15.10
2022-09-10T00:54:17.271Z,15.10
2022-09-10T00:56:45.645Z,15.10
2022-09-10T00:59:18.851Z,15.10
2022-09-10T01:01:49.181Z,15.10
2022-09-10T01:04:17.683Z,15.10
2022-09-10T01:06:48.059Z,15.10
2022-09-10T01:09:17.580Z,15.20
2022-09-10T01:12:04.496Z,15.20
2022-09-10T01:14:57.707Z,15.20
2022-09-10T01:17:35.081Z,15.30
2022-09-10T01:20:38.250Z,15.30
2022-09-10T01:23:32.655Z,15.30
2022-09-10T01:26:10.930Z,15.30
2022-09-10T01:28:46.558Z,15.30
2022-09-10T01:31:21.591Z,15.30
2022-09-10T01:33:54.029Z,15.30
2022-09-10T01:36:28.096Z,15.30
2022-09-10T01:38:57.162Z,15.30
2022-09-10T01:41:29.322Z,15.30
2022-09-10T01:44:08.491Z,15.30
2022-09-10T01:46:46.179Z,15.20
2022-09-10T01:49:28.599Z,15.20
2022-09-10T01:52:17.501Z,15.20
2022-09-10T01:54:59.981Z,15.00
2022-09-10T01:57:41.659Z,15.00
2022-09-10T02:00:13.973Z,15.00
2022-09-10T02:02:47.143Z,15.00
2022-09-10T02:05:17.778Z,15.00
2022-09-10T02:07:53.600Z,15.00
2022-09-10T02:10:23.522Z,15.00
2022-09-10T02:12:52.248Z,14.90
2022-09-10T02:15:36.453Z,14.80
2022-09-10T02:18:17.881Z,14.80
2022-09-10T02:20:47.476Z,14.70
2022-09-10T02:23:19.214Z,14.70
2022-09-10T02:25:49.179Z,14.70
2022-09-10T02:28:17.768Z,14.70
2022-09-10T02:30:48.251Z,14.70
2022-09-10T02:33:18.161Z,14.70
2022-09-10T02:35:47.827Z,14.70
2022-09-10T02:38:18.138Z,14.70
2022-09-10T02:40:49.039Z,14.70
2022-09-10T02:43:17.782Z,14.70
2022-09-10T02:45:47.339Z,14.70
2022-09-10T02:48:15.491Z,14.70
2022-09-10T02:50:46.169Z,14.70
2022-09-10T02:53:14.434Z,14.70
2022-09-10T02:55:46.215Z,14.70
2022-09-10T02:58:15.477Z,14.70
2022-09-10T03:00:44.259Z,14.80
2022-09-10T03:03:17.263Z,14.80
2022-09-10T03:05:45.640Z,14.90
2022-09-10T03:08:15.184Z,14.90
2022-09-10T03:10:46.434Z,15.00
2022-09-10T03:13:15.203Z,15.00
2022-09-10T03:15:43.741Z,15.00
2022-09-10T03:18:16.025Z,15.00
2022-09-10T03:20:44.120Z,14.90
2022-09-10T03:23:12.323Z,14.90
2022-09-10T03:25:40.948Z,14.90
2022-09-10T03:28:10.786Z,14.90
2022-09-10T03:30:40.615Z,14.90
2022-09-10T03:33:11.745Z,15.00
2022-09-10T03:35:43.270Z,14.90
2022-09-10T03:38:12.149Z,15.00
2022-09-10T03:40:40.581Z,15.00
2022-09-10T03:43:11.220Z,14.90
2022-09-10T03:45:39.907Z,14.90
2022-09-10T03:48:08.199Z,15.00
2022-09-10T03:50:37.160Z,15.00
2022-09-10T03:53:06.863Z,15.00
2022-09-10T03:55:35.884Z,15.00
2022-09-10T03:58:04.129Z,15.00
2022-09-10T04:00:32.213Z,15.00
2022-09-10T04:03:02.218Z,15.00
2022-09-10T04:05:30.744Z,15.10
2022-09-10T04:07:59.486Z,15.10
2022-09-10T04:10:30.297Z,15.10
2022-09-10T04:12:58.475Z,15.00
2022-09-10T04:15:27.353Z,15.10
2022-09-10T04:17:55.775Z,15.10
2022-09-10T04:20:26.743Z,15.10
2022-09-10T04:23:02.998Z,15.10
2022-09-10T04:25:33.555Z,15.10
2022-09-10T04:28:01.859Z,15.10
2022-09-10T04:30:31.041Z,15.10
2022-09-10T04:32:59.794Z,15.10
2022-09-10T04:35:30.504Z,15.10
2022-09-10T04:37:59.837Z,15.10
2022-09-10T04:40:28.307Z,15.10
2022-09-10T04:42:57.838Z,15.20
2022-09-10T04:45:26.183Z,15.10
2022-09-10T04:47:56.019Z,15.10
2022-09-10T04:50:24.326Z,15.10
2022-09-10T04:53:27.903Z,15.10
2022-09-10T04:55:58.671Z,15.20
2022-09-10T04:58:28.518Z,15.20
2022-09-10T05:00:57.139Z,15.20
2022-09-10T05:03:25.854Z,15.20
2022-09-10T05:05:55.909Z,15.20
2022-09-10T05:08:24.678Z,15.20
2022-09-10T05:10:57.509Z,15.20
2022-09-10T05:13:25.821Z,15.20
2022-09-10T05:15:55.424Z,15.20
2022-09-10T05:18:23.980Z,15.30
2022-09-10T05:20:52.152Z,15.30
2022-09-10T05:23:22.184Z,15.30
2022-09-10T05:25:51.787Z,15.30
2022-09-10T05:28:21.904Z,15.30
2022-09-10T05:30:51.919Z,15.30
2022-09-10T05:33:24.637Z,15.30
2022-09-10T05:35:52.800Z,15.40
2022-09-10T05:38:22.321Z,15.40
2022-09-10T05:40:52.251Z,15.50
2022-09-10T05:43:22.040Z,15.50
2022-09-10T05:45:51.952Z,15.50
2022-09-10T05:48:21.455Z,15.60
2022-09-10T05:50:52.409Z,15.60
2022-09-10T05:53:21.666Z,15.60
2022-09-10T05:55:49.941Z,15.60
2022-09-10T05:58:19.293Z,15.60
2022-09-10T06:00:51.240Z,15.70
2022-09-10T06:03:20.036Z,15.70
2022-09-10T06:05:52.027Z,15.70
2022-09-10T06:08:25.019Z,15.80
2022-09-10T06:10:58.867Z,15.80
2022-09-10T06:13:29.237Z,15.80
2022-09-10T06:15:58.282Z,15.80
2022-09-10T06:18:29.036Z,15.80
2022-09-10T06:21:06.944Z,15.80
2022-09-10T06:23:36.138Z,15.80
2022-09-10T06:26:06.667Z,15.80
2022-09-10T06:28:36.263Z,15.80
2022-09-10T06:31:05.611Z,15.80
2022-09-10T06:33:36.040Z,15.80
2022-09-10T06:36:07.302Z,15.70
2022-09-10T06:38:36.619Z,15.70
2022-09-10T06:41:08.867Z,15.70
2022-09-10T06:43:42.434Z,15.70
2022-09-10T06:46:56.866Z,15.70
2022-09-10T06:49:16.884Z,15.70
2022-09-10T06:51:50.647Z,15.70
2022-09-10T06:54:18.996Z,15.70
2022-09-10T06:56:49.338Z,15.70
2022-09-10T06:59:18.380Z,15.70
2022-09-10T07:01:49.505Z,15.60
2022-09-10T07:04:19.058Z,15.70
2022-09-10T07:06:47.633Z,15.70
2022-09-10T07:09:18.681Z,15.70
2022-09-10T07:11:57.506Z,15.80
2022-09-10T07:14:26.985Z,15.80
2022-09-10T07:16:57.483Z,15.90
2022-09-10T07:19:29.720Z,15.90
2022-09-10T07:21:58.198Z,16.00
2022-09-10T07:24:28.597Z,16.10
2022-09-10T07:27:26.074Z,16.20
2022-09-10T07:29:54.703Z,16.30
2022-09-10T07:32:22.894Z,16.50
2022-09-10T07:34:57.760Z,16.60
2022-09-10T07:37:30.454Z,16.60
2022-09-10T07:40:00.161Z,16.70
2022-09-10T07:42:29.389Z,16.60
2022-09-10T07:44:58.070Z,16.60
2022-09-10T07:47:27.362Z,16.60
2022-09-10T07:49:56.452Z,16.50
2022-09-10T07:52:24.965Z,16.40
2022-09-10T07:54:56.112Z,16.40
2022-09-10T07:57:25.688Z,16.50
2022-09-10T07:59:55.167Z,16.50
2022-09-10T08:02:25.824Z,16.50
2022-09-10T08:04:59.651Z,16.50
2022-09-10T08:07:28.498Z,16.60
2022-09-10T08:09:57.231Z,16.70
2022-09-10T08:12:26.725Z,16.90
2022-09-10T08:14:57.730Z,16.90
2022-09-10T08:17:26.817Z,17.10
2022-09-10T08:19:54.961Z,17.10
2022-09-10T08:22:23.245Z,17.20
2022-09-10T08:24:56.072Z,17.20
2022-09-10T08:27:30.120Z,17.40
2022-09-10T08:29:58.560Z,17.50
2022-09-10T08:32:27.714Z,17.60
2022-09-10T08:34:55.935Z,17.80
2022-09-10T08:37:24.145Z,18.00
2022-09-10T08:39:52.330Z,18.00
2022-09-10T08:42:28.622Z,18.00
2022-09-10T08:45:04.965Z,17.90
2022-09-10T08:47:41.163Z,17.90
2022-09-10T08:50:23.164Z,17.80
2022-09-10T08:52:58.494Z,17.70
2022-09-10T08:55:32.728Z,17.70
2022-09-10T08:58:06.856Z,17.70
2022-09-10T09:00:40.810Z,17.90
2022-09-10T09:03:20.787Z,17.90
2022-09-10T09:05:53.729Z,17.90
2022-09-10T09:08:28.928Z,17.90
2022-09-10T09:11:11.873Z,18.00
2022-09-10T09:14:04.374Z,18.00
2022-09-10T09:16:48.882Z,18.10
2022-09-10T09:19:25.170Z,18.10
2022-09-10T09:21:55.734Z,18.00
2022-09-10T09:24:40.768Z,18.00
2022-09-10T09:27:16.173Z,18.00
2022-09-10T09:29:52.433Z,18.20
2022-09-10T09:32:23.433Z,18.40
2022-09-10T09:34:55.858Z,18.40
2022-09-10T09:37:29.300Z,18.40
2022-09-10T09:40:10.467Z,18.40
2022-09-10T09:42:46.353Z,18.40
2022-09-10T09:45:23.333Z,18.30
2022-09-10T09:47:54.537Z,18.40
2022-09-10T09:50:23.312Z,18.40
2022-09-10T09:52:56.322Z,18.50
2022-09-10T09:55:33.502Z,18.60
2022-09-10T09:58:29.950Z,18.60
2022-09-10T10:01:12.939Z,18.70
2022-09-10T10:04:01.583Z,18.60
2022-09-10T10:06:32.577Z,18.70
2022-09-10T10:09:06.193Z,18.70
2022-09-10T10:11:47.173Z,18.60
2022-09-10T10:14:41.490Z,18.50
2022-09-10T10:17:32.297Z,18.40
2022-09-10T10:20:05.659Z,18.40
2022-09-10T10:22:33.926Z,18.30
2022-09-10T10:25:03.701Z,18.20
2022-09-10T10:27:35.190Z,18.20
2022-09-10T10:30:08.466Z,18.10
2022-09-10T10:32:47.370Z,18.10
2022-09-10T10:35:36.308Z,18.00
2022-09-10T10:38:31.108Z,18.00
2022-09-10T10:41:34.540Z,18.00
2022-09-10T10:44:32.313Z,18.10
2022-09-10T10:47:20.304Z,18.00
2022-09-10T10:49:55.761Z,18.00
2022-09-10T10:52:30.959Z,17.90
2022-09-10T10:55:12.449Z,17.80
2022-09-10T10:57:58.766Z,17.70
2022-09-10T11:00:28.569Z,17.60
2022-09-10T11:03:06.732Z,17.60
2022-09-10T11:05:39.134Z,17.50
2022-09-10T11:08:14.986Z,17.40
2022-09-10T11:10:47.418Z,17.40
2022-09-10T11:13:22.179Z,17.20
2022-09-10T11:15:59.307Z,17.20
2022-09-10T11:18:33.972Z,17.10
2022-09-10T11:21:08.566Z,17.10
2022-09-10T11:23:45.154Z,17.10
2022-09-10T11:26:17.053Z,17.00
2022-09-10T11:28:54.332Z,17.00
2022-09-10T11:31:31.954Z,16.80
2022-09-10T11:34:05.714Z,16.90
2022-09-10T11:36:42.369Z,16.80
2022-09-10T11:39:19.447Z,16.70
2022-09-10T11:41:49.759Z,16.60
2022-09-10T11:44:36.733Z,16.60
2022-09-10T11:47:11.372Z,16.60
2022-09-10T11:49:48.281Z,16.50
2022-09-10T11:52:17.531Z,16.50
2022-09-10T11:54:47.650Z,16.50
2022-09-10T11:57:28.474Z,16.50
2022-09-10T12:00:16.761Z,16.60
2022-09-10T12:03:23.301Z,16.60
2022-09-10T12:06:07.339Z,16.60
2022-09-10T12:09:00.989Z,16.70
2022-09-10T12:11:38.044Z,16.70
2022-09-10T12:14:08.590Z,16.70
2022-09-10T12:16:42.579Z,16.70
2022-09-10T12:19:22.927Z,16.70
2022-09-10T12:21:53.814Z,16.70
2022-09-10T12:24:31.012Z,16.70
2022-09-10T12:27:01.840Z,16.60
2022-09-10T12:29:35.779Z,16.60
2022-09-10T12:32:28.923Z,16.70
2022-09-10T12:35:44.941Z,16.70
2022-09-10T12:38:58.464Z,16.70
2022-09-10T12:41:55.754Z,16.70
2022-09-10T12:44:48.190Z,16.70
2022-09-10T12:47:50.398Z,16.70
2022-09-10T12:50:35.454Z,16.70
2022-09-10T12:53:37.425Z,16.70
2022-09-10T12:56:40.611Z,16.70
2022-09-10T12:59:27.344Z,16.70
2022-09-10T13:01:57.791Z,16.70
2022-09-10T13:04:30.229Z,16.70
2022-09-10T13:07:02.010Z,16.80
2022-09-10T13:09:33.417Z,16.70
2022-09-10T13:12:05.247Z,16.70
2022-09-10T13:14:38.166Z,16.70
2022-09-10T13:17:07.884Z,16.70
2022-09-10T13:19:55.159Z,16.80
2022-09-10T13:22:55.230Z,16.80
2022-09-10T13:25:34.883Z,16.80
2022-09-10T13:28:03.505Z,16.80
2022-09-10T13:30:32.411Z,16.80
2022-09-10T13:33:07.547Z,16.80
2022-09-10T13:36:10.790Z,16.80
2022-09-10T13:39:09.356Z,16.90
2022-09-10T13:42:10.161Z,16.90
2022-09-10T13:45:02.376Z,16.90
2022-09-10T13:47:36.719Z,16.90
2022-09-10T13:50:14.394Z,17.00
2022-09-10T13:52:48.103Z,17.00
2022-09-10T13:55:20.194Z,17.10
2022-09-10T13:57:50.817Z,17.00
2022-09-10T14:00:24.612Z,17.10
2022-09-10T14:02:54.813Z,17.20
2022-09-10T14:05:27.058Z,17.10
2022-09-10T14:07:56.836Z,17.10
2022-09-10T14:10:25.167Z,17.20
2022-09-10T14:12:55.807Z,17.20
2022-09-10T14:15:36.482Z,17.20
2022-09-10T14:18:05.138Z,17.10
2022-09-10T14:20:36.119Z,17.10
2022-09-10T14:23:06.877Z,17.10
2022-09-10T14:25:36.781Z,17.10
2022-09-10T14:28:24.251Z,17.00
2022-09-10T14:30:54.479Z,17.10
2022-09-10T14:33:32.566Z,17.10
2022-09-10T14:36:17.232Z,17.10
2022-09-10T14:38:54.327Z,17.10
2022-09-10T14:41:24.629Z,17.10
2022-09-10T14:44:29.678Z,17.10
2022-09-10T14:46:59.635Z,17.10
2022-09-10T14:49:29.728Z,17.10
2022-09-10T14:51:59.181Z,17.10
2022-09-10T14:54:27.690Z,17.00
2022-09-10T14:56:57.396Z,17.00
2022-09-10T14:59:31.260Z,17.00
2022-09-10T15:02:01.334Z,16.90
2022-09-10T15:04:30.896Z,16.90
2022-09-10T15:07:00.179Z,17.00
2022-09-10T15:09:31.080Z,17.00
2022-09-10T15:12:04.644Z,17.00
2022-09-10T15:14:35.651Z,17.00
2022-09-10T15:17:03.774Z,17.00
2022-09-10T15:19:32.350Z,16.90
2022-09-10T15:22:00.715Z,16.90
2022-09-10T15:24:28.957Z,16.90
2022-09-10T15:26:57.619Z,16.90
2022-09-10T15:29:26.121Z,16.90
2022-09-10T15:31:59.446Z,17.00
2022-09-10T15:34:27.581Z,17.00
2022-09-10T15:36:55.689Z,17.10
2022-09-10T15:39:23.764Z,17.10
2022-09-10T15:41:51.866Z,17.10
2022-09-10T15:44:19.957Z,17.10
2022-09-10T15:46:48.218Z,17.10
2022-09-10T15:49:17.781Z,17.20
2022-09-10T15:51:46.229Z,17.20
2022-09-10T15:54:14.502Z,17.20
2022-09-10T15:56:42.548Z,17.20
2022-09-10T15:59:10.681Z,17.30
2022-09-10T16:01:39.791Z,17.30
2022-09-10T16:04:08.489Z,17.50
2022-09-10T16:06:39.614Z,17.50
2022-09-10T16:09:09.775Z,17.50
2022-09-10T16:11:39.608Z,17.70
2022-09-10T16:14:11.246Z,17.70
2022-09-10T16:16:39.636Z,17.60
2022-09-10T16:19:08.119Z,17.60
2022-09-10T16:21:39.283Z,17.60
2022-09-10T16:24:08.378Z,17.50
2022-09-10T16:26:38.178Z,17.40
2022-09-10T16:29:07.946Z,17.50
2022-09-10T16:31:39.120Z,17.50
2022-09-10T16:34:08.824Z,17.40
2022-09-10T16:36:39.188Z,17.40
2022-09-10T16:39:12.194Z,17.30
2022-09-10T16:41:41.092Z,17.40
2022-09-10T16:44:10.988Z,17.40
2022-09-10T16:46:39.285Z,17.40
2022-09-10T16:49:09.012Z,17.40
2022-09-10T16:51:39.247Z,17.30
2022-09-10T16:54:08.232Z,17.40
2022-09-10T16:56:39.620Z,17.40
2022-09-10T16:59:08.881Z,17.40
2022-09-10T17:01:48.325Z,17.30
2022-09-10T17:04:20.656Z,17.30
2022-09-10T17:06:53.018Z,17.30
2022-09-10T17:09:21.217Z,17.30
2022-09-10T17:11:49.370Z,17.30
2022-09-10T17:14:17.436Z,17.30
2022-09-10T17:16:45.832Z,17.20
2022-09-10T17:19:15.666Z,17.20
2022-09-10T17:21:47.306Z,17.10
2022-09-10T17:24:16.751Z,17.10
2022-09-10T17:26:46.108Z,17.00
2022-09-10T17:29:16.669Z,17.00
2022-09-10T17:31:46.551Z,17.00
2022-09-10T17:34:15.419Z,17.00
2022-09-10T17:36:45.585Z,17.00
2022-09-10T17:39:14.797Z,17.00
2022-09-10T17:41:44.537Z,16.90
2022-09-10T17:44:13.837Z,17.00
2022-09-10T17:46:42.759Z,17.00
2022-09-10T17:49:13.438Z,17.00
2022-09-10T17:51:41.865Z,16.90
2022-09-10T17:54:11.009Z,16.90
2022-09-10T17:56:39.158Z,16.90
2022-09-10T17:59:08.738Z,16.90
2022-09-10T18:01:38.997Z,16.90
2022-09-10T18:04:08.042Z,16.80
2022-09-10T18:06:37.654Z,16.70
2022-09-10T18:09:07.023Z,16.70
2022-09-10T18:11:36.925Z,16.70
2022-09-10T18:14:05.686Z,16.80
2022-09-10T18:16:37.966Z,16.70
2022-09-10T18:19:13.902Z,16.60
2022-09-10T18:21:43.677Z,16.60
2022-09-10T18:24:13.272Z,16.50
2022-09-10T18:26:44.345Z,16.60
2022-09-10T18:29:17.691Z,16.60
2022-09-10T18:31:49.711Z,16.60
2022-09-10T18:34:23.153Z,16.60
2022-09-10T18:36:54.422Z,16.60
2022-09-10T18:39:23.666Z,16.60
2022-09-10T18:41:52.564Z,16.60
2022-09-10T18:44:22.932Z,16.50
2022-09-10T18:46:53.765Z,16.50
2022-09-10T18:49:24.293Z,16.50
2022-09-10T18:51:54.061Z,16.40
2022-09-10T18:54:24.043Z,16.40
2022-09-10T18:56:53.327Z,16.50
2022-09-10T18:59:23.401Z,16.40
2022-09-10T19:01:55.804Z,16.40
2022-09-10T19:04:27.087Z,16.40
2022-09-10T19:06:56.179Z,16.40
2022-09-10T19:09:33.915Z,16.50
2022-09-10T19:12:02.427Z,16.40
2022-09-10T19:14:32.287Z,16.40
2022-09-10T19:17:01.983Z,16.40
2022-09-10T19:19:32.569Z,16.40
2022-09-10T19:22:03.407Z,16.40
2022-09-10T19:27:22.215Z,16.40
2022-09-10T19:29:50.659Z,16.40
2022-09-10T19:32:21.102Z,16.40
2022-09-10T19:34:50.952Z,16.40
2022-09-10T19:37:19.582Z,16.30
2022-09-10T19:39:49.243Z,16.30
2022-09-10T19:42:17.827Z,16.30
2022-09-10T19:44:46.100Z,16.30
2022-09-10T19:47:14.320Z,16.30
2022-09-10T19:49:42.483Z,16.20
2022-09-10T19:52:11.058Z,16.30
2022-09-10T19:54:39.831Z,16.20
2022-09-10T19:57:09.548Z,16.20
2022-09-10T19:59:38.134Z,16.20
2022-09-10T20:02:06.484Z,16.30
2022-09-10T20:04:36.015Z,16.30
2022-09-10T20:07:04.394Z,16.30
2022-09-10T20:09:35.678Z,16.30
2022-09-10T20:12:06.653Z,16.30
2022-09-10T20:14:36.280Z,16.20
2022-09-10T20:17:05.712Z,16.20
2022-09-10T20:19:33.933Z,16.20
2022-09-10T20:22:02.107Z,16.20
2022-09-10T20:24:31.460Z,16.20
2022-09-10T20:26:59.641Z,16.20
2022-09-10T20:29:28.926Z,16.20
2022-09-10T20:31:58.544Z,16.20
2022-09-10T20:34:26.763Z,16.10
2022-09-10T20:36:55.168Z,16.10
2022-09-10T20:39:25.279Z,16.10
2022-09-10T20:41:53.601Z,16.10
2022-09-10T20:44:23.130Z,16.10
2022-09-10T20:46:52.553Z,16.10
2022-09-10T20:49:22.671Z,16.10
2022-09-10T20:51:50.843Z,16.10
2022-09-10T20:54:20.278Z,16.10
2022-09-10T20:56:48.803Z,16.00
2022-09-10T20:59:17.974Z,16.00
2022-09-10T21:01:47.512Z,16.00
2022-09-10T21:04:16.240Z,16.00
2022-09-10T21:06:46.071Z,15.90
2022-09-10T21:09:14.436Z,15.90
2022-09-10T21:11:42.645Z,15.80
2022-09-10T21:14:12.870Z,15.80
2022-09-10T21:16:43.249Z,15.80
2022-09-10T21:19:13.813Z,15.90
2022-09-10T21:21:43.324Z,15.80
2022-09-10T21:24:15.056Z,15.80
2022-09-10T21:26:44.309Z,15.80
2022-09-10T21:29:14.419Z,15.70
2022-09-10T21:31:43.359Z,15.70
2022-09-10T21:34:11.664Z,15.70
2022-09-10T21:36:41.125Z,15.70
2022-09-10T21:39:15.445Z,15.60
2022-09-10T21:41:45.379Z,15.60
2022-09-10T21:44:15.697Z,15.60
2022-09-10T21:46:45.141Z,15.60
2022-09-10T21:49:13.744Z,15.70
2022-09-10T21:51:42.382Z,15.70
2022-09-10T21:54:17.054Z,15.70
2022-09-10T21:56:45.456Z,15.70
2022-09-10T21:59:14.713Z,15.70
2022-09-10T22:01:44.652Z,15.70
2022-09-10T22:04:16.807Z,15.70
2022-09-10T22:06:47.118Z,15.70
2022-09-10T22:09:17.577Z,15.70
2022-09-10T22:11:47.976Z,15.70
2022-09-10T22:14:18.250Z,15.70
2022-09-10T22:16:46.813Z,15.70
2022-09-10T22:19:18.074Z,15.70
2022-09-10T22:21:47.120Z,15.70
2022-09-10T22:24:18.411Z,15.70
2022-09-10T22:26:47.258Z,15.70
2022-09-10T22:29:17.497Z,15.60
2022-09-10T22:31:45.890Z,15.60
2022-09-10T22:34:16.446Z,15.50
2022-09-10T22:36:46.485Z,15.50
2022-09-10T22:39:17.955Z,15.50
2022-09-10T22:41:46.744Z,15.50
2022-09-10T22:44:17.706Z,15.50
2022-09-10T22:46:46.066Z,15.60
2022-09-10T22:49:15.505Z,15.50
2022-09-10T22:51:44.087Z,15.50
2022-09-10T22:54:12.489Z,15.50
2022-09-10T22:56:42.424Z,15.50
2022-09-10T22:59:14.643Z,15.50
2022-09-10T23:01:45.916Z,15.40
2022-09-10T23:04:14.540Z,15.40
2022-09-10T23:06:42.860Z,15.40
2022-09-10T23:09:14.132Z,15.30
2022-09-10T23:11:45.184Z,15.30
2022-09-10T23:14:17.687Z,15.20
2022-09-10T23:16:48.807Z,15.30
2022-09-10T23:19:18.876Z,15.30
2022-09-10T23:21:49.557Z,15.30
2022-09-10T23:24:19.960Z,15.30
2022-09-10T23:26:49.813Z,15.20
2022-09-10T23:29:18.523Z,15.10
2022-09-10T23:31:47.922Z,15.10
2022-09-10T23:34:18.136Z,15.00
2022-09-10T23:36:48.572Z,15.00
2022-09-10T23:39:18.630Z,14.90
2022-09-10T23:41:47.416Z,14.90
2022-09-10T23:44:17.438Z,15.00
2022-09-10T23:46:46.074Z,15.00
2022-09-10T23:49:14.524Z,14.90
2022-09-10T23:51:42.826Z,14.80
2022-09-10T23:54:11.648Z,14.80
2022-09-10T23:56:40.291Z,14.90
2022-09-10T23:59:08.995Z,14.80
